createdAt,value
2023-03-05T00:01:03.715Z,206.12766
2023-03-05T00:06:05.535Z,199.60166
2023-03-05T00:11:07.297Z,198.54545
2023-03-05T00:16:09.105Z,202.82353
2023-03-05T00:21:10.741Z,207.24786
2023-03-05T00:26:12.398Z,220.23318
2023-03-05T00:31:14.045Z,226.56881
2023-03-05T00:36:15.694Z,225.27854
2023-03-05T00:41:17.513Z,233.20188
2023-03-05T00:46:19.280Z,234.56604
2023-03-05T00:51:20.760Z,240.15385
2023-03-05T00:56:22.283Z,290.06742
2023-03-05T01:01:23.763Z,308.49704
2023-03-05T01:06:25.521Z,304.23392
2023-03-05T01:11:27.128Z,312.86228
2023-03-05T01:16:28.725Z,319.60976
2023-03-05T01:21:30.247Z,315.08434
2023-03-05T01:26:31.739Z,317.33333
2023-03-05T01:31:33.304Z,319.60976
2023-03-05T01:36:34.873Z,329
2023-03-05T01:41:36.382Z,333.87342
2023-03-05T01:46:38.277Z,338.87179
2023-03-05T01:51:40.124Z,344
2023-03-05T01:56:41.843Z,363.04762
2023-03-05T02:01:43.572Z,344
2023-03-05T02:06:45.300Z,344
2023-03-05T02:11:46.956Z,331.42138
2023-03-05T02:16:48.530Z,294
2023-03-05T02:21:50.067Z,266.51309
2023-03-05T02:26:51.549Z,259.89744
2023-03-05T02:31:53.112Z,250.46766
2023-03-05T02:36:54.615Z,259.89744
2023-03-05T02:41:56.123Z,258.28571
2023-03-05T02:46:57.532Z,256.69036
2023-03-05T02:51:58.984Z,263.17098
2023-03-05T02:57:00.492Z,266.51309
2023-03-05T03:02:01.954Z,273.41176
2023-03-05T03:07:04.092Z,258.28571
2023-03-05T03:12:05.580Z,256.69036
2023-03-05T03:17:07.052Z,253.54774
2023-03-05T03:22:08.691Z,250.46766
2023-03-05T03:27:10.228Z,244.4878
2023-03-05T03:32:11.765Z,238.73684
2023-03-05T03:37:13.295Z,238.73684
2023-03-05T03:42:14.786Z,233.20188
2023-03-05T03:47:16.257Z,225.27854
2023-03-05T03:52:17.723Z,225.27854
2023-03-05T03:57:19.366Z,221.47748
2023-03-05T04:02:20.862Z,216.56637
2023-03-05T04:07:22.408Z,211.82609
2023-03-05T04:12:24.071Z,211.82609
2023-03-05T04:17:25.504Z,209.51724
2023-03-05T04:22:27.063Z,209.51724
2023-03-05T04:27:28.553Z,210.66667
2023-03-05T04:32:30.099Z,215.36564
2023-03-05T04:37:31.625Z,212.99563
2023-03-05T04:42:33.100Z,215.36564
2023-03-05T04:47:34.611Z,215.36564
2023-03-05T04:52:36.098Z,220.23318
2023-03-05T04:57:37.841Z,219
2023-03-05T05:02:39.379Z,217.77778
2023-03-05T05:07:41.177Z,226.56881
2023-03-05T05:12:42.668Z,226.56881
2023-03-05T05:17:44.127Z,229.18519
2023-03-05T05:22:45.671Z,233.20188
2023-03-05T05:27:47.204Z,244.4878
2023-03-05T05:32:48.688Z,243.02913
2023-03-05T05:37:50.360Z,231.85047
2023-03-05T05:42:51.857Z,248.9505
2023-03-05T05:47:53.418Z,233.20188
2023-03-05T05:52:54.930Z,256.69036
2023-03-05T05:57:56.426Z,240.15385
2023-03-05T06:02:57.984Z,248.9505
2023-03-05T06:07:59.535Z,280.61202
2023-03-05T06:13:01.049Z,317.33333
2023-03-05T06:18:02.548Z,429.03937
2023-03-05T06:23:04.030Z,514.37037
2023-03-05T06:28:05.521Z,530.66667
2023-03-05T06:33:07.278Z,530.66667
2023-03-05T06:38:09.180Z,470.49573
2023-03-05T06:43:10.940Z,519.70093
2023-03-05T06:48:12.703Z,509.13761
2023-03-05T06:53:14.513Z,599.31915
2023-03-05T06:58:16.168Z,599.31915
2023-03-05T07:03:17.892Z,799.55556
2023-03-05T07:08:19.680Z,714
2023-03-05T07:13:21.476Z,677.33333
2023-03-05T07:18:23.253Z,970.66667
2023-03-05T07:23:25.037Z,863.40299
2023-03-05T07:28:26.783Z,754.52632
2023-03-05T07:33:28.274Z,733.74359
2023-03-05T07:38:29.834Z,849.88235
2023-03-05T07:43:31.596Z,863.40299
2023-03-05T07:48:33.392Z,1024.70175
2023-03-05T07:53:35.167Z,953.83607
2023-03-05T07:58:36.941Z,686.16867
2023-03-05T08:03:38.646Z,1128.61538
2023-03-05T08:08:40.441Z,1084.74074
2023-03-05T08:13:42.186Z,1006.06897
2023-03-05T08:18:43.987Z,921.77778
2023-03-05T08:23:45.976Z,799.55556
2023-03-05T08:28:47.715Z,1523.48718
2023-03-05T08:33:49.163Z,1565.05263
2023-03-05T08:38:50.771Z,1704
2023-03-05T08:43:52.313Z,1755.76471
2023-03-05T08:48:53.806Z,2144
2023-03-05T08:53:55.354Z,1931.09677
2023-03-05T08:58:56.925Z,2144
2023-03-05T09:03:58.428Z,2408
2023-03-05T09:08:59.862Z,3366.22222
2023-03-05T09:14:01.373Z,1931.09677
2023-03-05T09:19:03.017Z,2068.13793
2023-03-05T09:24:04.688Z,1254.6383
2023-03-05T09:29:06.223Z,2744
2023-03-05T09:34:07.964Z,2510.66667
2023-03-05T09:39:09.857Z,1997.33333
2023-03-05T09:44:11.585Z,2313.23077
2023-03-05T09:49:13.340Z,2408
2023-03-05T09:54:15.108Z,3186.10526
2023-03-05T09:59:16.861Z,2144
2023-03-05T10:04:18.726Z,2877.33333
2023-03-05T10:09:20.707Z,4050.66667
2023-03-05T10:14:22.471Z,3024
2023-03-05T10:19:24.224Z,3186.10526
2023-03-05T10:24:26.015Z,4050.66667
2023-03-05T10:29:27.796Z,5544
2023-03-05T10:34:29.438Z,4050.66667
2023-03-05T10:39:31.299Z,4682.46154
2023-03-05T10:44:32.961Z,5077.33333
2023-03-05T10:49:34.714Z,4682.46154
2023-03-05T10:54:36.481Z,5544
2023-03-05T10:59:38.105Z,5544
2023-03-05T11:04:39.720Z,7644
2023-03-05T11:09:41.559Z,6788.44444
2023-03-05T11:14:43.216Z,4682.46154
2023-03-05T11:19:44.851Z,5544
2023-03-05T11:24:46.704Z,5544
2023-03-05T11:29:48.401Z,4682.46154
2023-03-05T11:34:50.247Z,7644
2023-03-05T11:39:51.789Z,6788.44444
2023-03-05T11:44:53.288Z,5544
2023-03-05T11:49:54.792Z,6788.44444
2023-03-05T11:54:56.327Z,8744
2023-03-05T11:59:57.826Z,10210.66667
2023-03-05T12:04:59.573Z,4682.46154
2023-03-05T12:10:01.464Z,12264
2023-03-05T12:15:03.208Z,20477.33333
2023-03-05T12:20:04.925Z,10210.66667
2023-03-05T12:25:06.743Z,7644
2023-03-05T12:30:08.471Z,12264
2023-03-05T12:35:10.137Z,12264
2023-03-05T12:40:11.966Z,12264
2023-03-05T12:45:13.708Z,8744
2023-03-05T12:50:15.465Z,8744
2023-03-05T12:55:17.266Z,12264
2023-03-05T13:00:19.012Z,12264
2023-03-05T13:05:20.777Z,15344
2023-03-05T13:10:22.594Z,10210.66667
2023-03-05T13:15:24.321Z,5544
2023-03-05T13:20:26.045Z,4344
2023-03-05T13:25:27.838Z,8744
2023-03-05T13:30:29.598Z,5077.33333
2023-03-05T13:35:31.437Z,5077.33333
2023-03-05T13:40:33.277Z,5077.33333
2023-03-05T13:45:35.192Z,3794
2023-03-05T13:50:36.952Z,4682.46154
2023-03-05T13:55:38.731Z,5077.33333
2023-03-05T14:00:40.512Z,5544
2023-03-05T14:05:42.236Z,7644
2023-03-05T14:10:44.032Z,8744
2023-03-05T14:15:45.814Z,6104
2023-03-05T14:20:47.596Z,3567.52941
2023-03-05T14:25:49.377Z,3366.22222
2023-03-05T14:30:51.192Z,2622.26087
2023-03-05T14:35:52.801Z,4050.66667
2023-03-05T14:40:54.506Z,4682.46154
2023-03-05T14:45:56.318Z,6104
2023-03-05T14:50:57.784Z,5544
2023-03-05T14:55:59.659Z,6104
2023-03-05T15:01:01.379Z,6788.44444
2023-03-05T15:06:03.144Z,5544
2023-03-05T15:11:05.090Z,4344
2023-03-05T15:16:06.772Z,5077.33333
2023-03-05T15:21:08.534Z,4050.66667
2023-03-05T15:26:10.486Z,3567.52941
2023-03-05T15:31:12.280Z,2744
2023-03-05T15:36:14.020Z,2313.23077
2023-03-05T15:41:15.842Z,2068.13793
2023-03-05T15:46:17.597Z,2510.66667
2023-03-05T15:51:19.414Z,1997.33333
2023-03-05T15:56:20.992Z,1755.76471
2023-03-05T16:01:22.744Z,1755.76471
2023-03-05T16:06:24.461Z,1755.76471
2023-03-05T16:11:26.500Z,1655.11111
2023-03-05T16:16:28.032Z,1608.86486
2023-03-05T16:21:29.524Z,1655.11111
2023-03-05T16:26:30.996Z,1565.05263
2023-03-05T16:31:32.883Z,1376.55814
2023-03-05T16:36:34.449Z,1523.48718
2023-03-05T16:41:36.202Z,1608.86486
2023-03-05T16:46:37.748Z,1376.55814
2023-03-05T16:51:39.239Z,1283.13043
2023-03-05T16:56:40.714Z,1201.14286
2023-03-05T17:01:42.155Z,1201.14286
2023-03-05T17:06:43.656Z,1128.61538
2023-03-05T17:11:45.309Z,1006.06897
2023-03-05T17:16:46.860Z,836.75362
2023-03-05T17:21:48.300Z,1024.70175
2023-03-05T17:26:49.850Z,811.60563
2023-03-05T17:31:51.433Z,733.74359
2023-03-05T17:36:52.881Z,744
2023-03-05T17:41:54.386Z,660.27907
2023-03-05T17:46:55.982Z,599.31915
2023-03-05T17:51:57.394Z,579.05155
2023-03-05T17:56:58.853Z,547.92157
2023-03-05T18:02:00.416Z,536.30769
2023-03-05T18:07:01.964Z,542.05825
2023-03-05T18:12:03.433Z,514.37037
2023-03-05T18:17:05.025Z,509.13761
2023-03-05T18:22:06.512Z,489.13274
2023-03-05T18:27:08.109Z,494
2023-03-05T18:32:10.224Z,494
2023-03-05T18:37:11.834Z,536.30769
2023-03-05T18:42:13.451Z,723.74684
2023-03-05T18:47:14.908Z,733.74359
2023-03-05T18:52:16.464Z,677.33333
2023-03-05T18:57:17.910Z,652.04598
2023-03-05T19:02:19.404Z,686.16867
2023-03-05T19:07:20.936Z,644
2023-03-05T19:12:22.447Z,613.56522
2023-03-05T19:17:23.883Z,695.21951
2023-03-05T19:22:25.681Z,644
2023-03-05T19:27:27.403Z,723.74684
2023-03-05T19:37:29.366Z,613.56522
2023-03-05T19:42:30.840Z,714
2023-03-05T19:47:32.343Z,579.05155
2023-03-05T19:52:33.923Z,644
2023-03-05T19:57:35.370Z,628.44444
2023-03-05T20:02:36.897Z,592.42105
2023-03-05T20:07:38.332Z,553.90099
2023-03-05T20:12:40.056Z,599.31915
2023-03-05T20:17:41.502Z,566.22222
2023-03-05T20:22:43.005Z,519.70093
2023-03-05T20:27:44.478Z,421.51938
2023-03-05T20:32:45.940Z,377.80282
2023-03-05T20:37:47.497Z,351.94702
2023-03-05T20:42:48.967Z,333.87342
2023-03-05T20:47:50.437Z,315.08434
2023-03-05T20:52:51.924Z,310.66667
2023-03-05T20:57:53.611Z,306.35294
2023-03-05T21:02:55.025Z,306.35294
2023-03-05T21:07:56.556Z,326.6087
2023-03-05T21:13:00.607Z,329
2023-03-05T21:18:02.372Z,306.35294
2023-03-05T21:23:03.851Z,310.66667
2023-03-05T21:28:05.314Z,306.35294
2023-03-05T21:33:06.816Z,302.13953
2023-03-05T21:38:08.300Z,294
2023-03-05T21:43:09.943Z,292.0226
2023-03-05T21:48:11.353Z,292.0226
2023-03-05T21:53:12.818Z,282.46154
2023-03-05T21:58:14.273Z,288.13408
2023-03-05T22:03:15.741Z,300.06936
2023-03-05T22:08:17.253Z,302.13953
2023-03-05T22:13:18.793Z,294
2023-03-05T22:18:20.356Z,294
2023-03-05T22:23:21.901Z,290.06742
2023-03-05T22:28:23.466Z,280.61202
2023-03-05T22:33:24.956Z,286.22222
2023-03-05T22:38:26.512Z,286.22222
2023-03-05T22:43:28.022Z,280.61202
2023-03-05T22:48:29.582Z,276.97297
2023-03-05T22:53:31.133Z,280.61202
2023-03-05T22:58:32.722Z,286.22222
2023-03-05T23:03:34.244Z,276.97297
2023-03-05T23:08:35.769Z,282.46154
2023-03-05T23:13:37.274Z,278.78261
2023-03-05T23:18:38.814Z,273.41176
2023-03-05T23:23:40.330Z,268.21053
2023-03-05T23:28:41.768Z,263.17098
2023-03-05T23:33:43.278Z,258.28571
2023-03-05T23:38:44.757Z,250.46766
2023-03-05T23:43:46.337Z,244.4878
2023-03-05T23:48:47.803Z,237.33333
2023-03-05T23:53:49.397Z,225.27854
2023-03-05T23:58:50.934Z,214.17544
